sensor_id;sensor_type;location;lat;lon;timestamp;P1;durP1;ratioP1;P2;durP2;ratioP2
21110;SDS011;10713;51.912;4.494;2023-03-16T00:00:35;11.85;;;6.10;;
21110;SDS011;10713;51.912;4.494;2023-03-16T00:03:01;13.43;;;6.15;;
21110;SDS011;10713;51.912;4.494;2023-03-16T00:05:26;10.93;;;6.50;;
21110;SDS011;10713;51.912;4.494;2023-03-16T00:07:51;11.98;;;6.85;;
21110;SDS011;10713;51.912;4.494;2023-03-16T00:10:17;10.23;;;5.80;;
21110;SDS011;10713;51.912;4.494;2023-03-16T00:12:42;13.00;;;6.22;;
21110;SDS011;10713;51.912;4.494;2023-03-16T00:15:09;10.32;;;6.32;;
21110;SDS011;10713;51.912;4.494;2023-03-16T00:17:35;11.60;;;6.00;;
21110;SDS011;10713;51.912;4.494;2023-03-16T00:20:00;10.75;;;5.72;;
21110;SDS011;10713;51.912;4.494;2023-03-16T00:22:30;12.20;;;5.72;;
21110;SDS011;10713;51.912;4.494;2023-03-16T00:24:56;7.38;;;4.80;;
21110;SDS011;10713;51.912;4.494;2023-03-16T00:27:23;8.52;;;5.70;;
21110;SDS011;10713;51.912;4.494;2023-03-16T00:29:49;12.43;;;6.63;;
21110;SDS011;10713;51.912;4.494;2023-03-16T00:32:20;9.98;;;5.85;;
21110;SDS011;10713;51.912;4.494;2023-03-16T00:34:48;11.25;;;6.28;;
21110;SDS011;10713;51.912;4.494;2023-03-16T00:37:16;10.18;;;6.10;;
21110;SDS011;10713;51.912;4.494;2023-03-16T00:39:43;10.40;;;5.47;;
21110;SDS011;10713;51.912;4.494;2023-03-16T00:42:10;11.45;;;5.40;;
21110;SDS011;10713;51.912;4.494;2023-03-16T00:44:38;11.27;;;6.55;;
21110;SDS011;10713;51.912;4.494;2023-03-16T00:47:05;10.35;;;6.70;;
21110;SDS011;10713;51.912;4.494;2023-03-16T00:49:32;11.00;;;5.97;;
21110;SDS011;10713;51.912;4.494;2023-03-16T00:52:02;12.15;;;5.10;;
21110;SDS011;10713;51.912;4.494;2023-03-16T00:54:29;11.63;;;5.97;;
21110;SDS011;10713;51.912;4.494;2023-03-16T00:56:57;11.68;;;6.18;;
21110;SDS011;10713;51.912;4.494;2023-03-16T00:59:23;11.70;;;5.25;;
21110;SDS011;10713;51.912;4.494;2023-03-16T01:01:50;13.85;;;6.40;;
21110;SDS011;10713;51.912;4.494;2023-03-16T01:04:16;14.82;;;6.57;;
21110;SDS011;10713;51.912;4.494;2023-03-16T01:06:43;11.73;;;5.25;;
21110;SDS011;10713;51.912;4.494;2023-03-16T01:09:08;10.15;;;6.28;;
21110;SDS011;10713;51.912;4.494;2023-03-16T01:11:34;11.93;;;6.13;;
21110;SDS011;10713;51.912;4.494;2023-03-16T01:13:59;12.32;;;6.50;;
21110;SDS011;10713;51.912;4.494;2023-03-16T01:16:25;12.15;;;6.57;;
21110;SDS011;10713;51.912;4.494;2023-03-16T01:18:51;12.90;;;6.47;;
21110;SDS011;10713;51.912;4.494;2023-03-16T01:21:17;10.50;;;5.50;;
21110;SDS011;10713;51.912;4.494;2023-03-16T01:23:45;12.48;;;6.70;;
21110;SDS011;10713;51.912;4.494;2023-03-16T01:26:11;10.40;;;6.28;;
21110;SDS011;10713;51.912;4.494;2023-03-16T01:28:39;10.15;;;5.95;;
21110;SDS011;10713;51.912;4.494;2023-03-16T01:31:08;10.70;;;5.90;;
21110;SDS011;10713;51.912;4.494;2023-03-16T01:33:35;10.85;;;6.18;;
21110;SDS011;10713;51.912;4.494;2023-03-16T01:36:02;10.77;;;5.75;;
21110;SDS011;10713;51.912;4.494;2023-03-16T01:38:35;11.52;;;5.88;;
21110;SDS011;10713;51.912;4.494;2023-03-16T01:41:01;14.40;;;6.55;;
21110;SDS011;10713;51.912;4.494;2023-03-16T01:43:28;8.00;;;5.53;;
21110;SDS011;10713;51.912;4.494;2023-03-16T01:51:44;10.40;;;5.97;;
21110;SDS011;10713;51.912;4.494;2023-03-16T01:56:54;12.20;;;5.95;;
21110;SDS011;10713;51.912;4.494;2023-03-16T01:59:51;12.10;;;6.70;;
21110;SDS011;10713;51.912;4.494;2023-03-16T02:02:14;15.38;;;6.28;;
21110;SDS011;10713;51.912;4.494;2023-03-16T02:07:24;10.95;;;5.43;;
21110;SDS011;10713;51.912;4.494;2023-03-16T02:09:53;13.85;;;6.22;;
21110;SDS011;10713;51.912;4.494;2023-03-16T02:12:22;10.85;;;6.05;;
21110;SDS011;10713;51.912;4.494;2023-03-16T02:14:48;13.77;;;6.82;;
21110;SDS011;10713;51.912;4.494;2023-03-16T02:17:16;18.08;;;7.00;;
21110;SDS011;10713;51.912;4.494;2023-03-16T02:19:52;13.75;;;6.47;;
21110;SDS011;10713;51.912;4.494;2023-03-16T02:22:22;12.32;;;6.07;;
21110;SDS011;10713;51.912;4.494;2023-03-16T02:24:49;12.18;;;6.45;;
21110;SDS011;10713;51.912;4.494;2023-03-16T02:27:19;13.77;;;6.57;;
21110;SDS011;10713;51.912;4.494;2023-03-16T02:30:09;10.02;;;6.18;;
21110;SDS011;10713;51.912;4.494;2023-03-16T02:32:38;9.50;;;5.90;;
21110;SDS011;10713;51.912;4.494;2023-03-16T02:35:06;12.05;;;6.05;;
21110;SDS011;10713;51.912;4.494;2023-03-16T02:37:33;12.35;;;6.28;;
21110;SDS011;10713;51.912;4.494;2023-03-16T02:39:59;10.55;;;6.53;;
21110;SDS011;10713;51.912;4.494;2023-03-16T02:42:26;10.02;;;5.90;;
21110;SDS011;10713;51.912;4.494;2023-03-16T02:44:56;17.73;;;6.68;;
21110;SDS011;10713;51.912;4.494;2023-03-16T02:47:55;11.20;;;6.28;;
21110;SDS011;10713;51.912;4.494;2023-03-16T02:50:17;12.10;;;6.28;;
21110;SDS011;10713;51.912;4.494;2023-03-16T02:52:43;13.77;;;6.63;;
21110;SDS011;10713;51.912;4.494;2023-03-16T02:55:08;10.15;;;6.68;;
21110;SDS011;10713;51.912;4.494;2023-03-16T02:57:34;14.45;;;6.55;;
21110;SDS011;10713;51.912;4.494;2023-03-16T03:00:00;13.95;;;6.68;;
21110;SDS011;10713;51.912;4.494;2023-03-16T03:02:25;13.45;;;6.90;;
21110;SDS011;10713;51.912;4.494;2023-03-16T03:04:51;14.00;;;6.20;;
21110;SDS011;10713;51.912;4.494;2023-03-16T03:07:18;13.57;;;6.07;;
21110;SDS011;10713;51.912;4.494;2023-03-16T03:09:45;10.85;;;5.28;;
21110;SDS011;10713;51.912;4.494;2023-03-16T03:12:10;13.07;;;6.80;;
21110;SDS011;10713;51.912;4.494;2023-03-16T03:14:37;8.63;;;5.88;;
21110;SDS011;10713;51.912;4.494;2023-03-16T03:17:04;11.43;;;6.07;;
21110;SDS011;10713;51.912;4.494;2023-03-16T03:19:31;11.73;;;5.93;;
21110;SDS011;10713;51.912;4.494;2023-03-16T03:21:57;7.07;;;4.45;;
21110;SDS011;10713;51.912;4.494;2023-03-16T03:24:23;12.27;;;5.45;;
21110;SDS011;10713;51.912;4.494;2023-03-16T03:26:48;14.38;;;6.35;;
21110;SDS011;10713;51.912;4.494;2023-03-16T03:29:15;10.90;;;4.72;;
21110;SDS011;10713;51.912;4.494;2023-03-16T03:31:41;8.13;;;4.78;;
21110;SDS011;10713;51.912;4.494;2023-03-16T03:34:07;6.78;;;4.47;;
21110;SDS011;10713;51.912;4.494;2023-03-16T03:36:32;10.98;;;5.03;;
21110;SDS011;10713;51.912;4.494;2023-03-16T03:38:58;11.50;;;5.38;;
21110;SDS011;10713;51.912;4.494;2023-03-16T03:41:23;8.05;;;5.03;;
21110;SDS011;10713;51.912;4.494;2023-03-16T03:43:49;10.20;;;6.05;;
21110;SDS011;10713;51.912;4.494;2023-03-16T03:46:14;7.50;;;4.45;;
21110;SDS011;10713;51.912;4.494;2023-03-16T03:48:40;8.00;;;4.88;;
21110;SDS011;10713;51.912;4.494;2023-03-16T03:51:05;9.88;;;5.78;;
21110;SDS011;10713;51.912;4.494;2023-03-16T03:53:31;10.38;;;5.40;;
21110;SDS011;10713;51.912;4.494;2023-03-16T03:55:56;8.77;;;5.10;;
21110;SDS011;10713;51.912;4.494;2023-03-16T03:58:22;12.63;;;5.13;;
21110;SDS011;10713;51.912;4.494;2023-03-16T04:00:47;12.07;;;4.53;;
21110;SDS011;10713;51.912;4.494;2023-03-16T04:03:12;6.35;;;3.50;;
21110;SDS011;10713;51.912;4.494;2023-03-16T04:05:38;9.82;;;4.90;;
21110;SDS011;10713;51.912;4.494;2023-03-16T04:08:04;8.55;;;3.50;;
21110;SDS011;10713;51.912;4.494;2023-03-16T04:10:29;9.75;;;4.32;;
21110;SDS011;10713;51.912;4.494;2023-03-16T04:12:55;8.23;;;4.95;;
21110;SDS011;10713;51.912;4.494;2023-03-16T04:15:21;8.65;;;4.80;;
21110;SDS011;10713;51.912;4.494;2023-03-16T04:17:47;9.55;;;5.32;;
21110;SDS011;10713;51.912;4.494;2023-03-16T04:20:13;9.65;;;4.60;;
21110;SDS011;10713;51.912;4.494;2023-03-16T04:22:43;8.50;;;4.88;;
21110;SDS011;10713;51.912;4.494;2023-03-16T04:25:10;6.45;;;2.75;;
21110;SDS011;10713;51.912;4.494;2023-03-16T04:27:35;7.18;;;4.13;;
21110;SDS011;10713;51.912;4.494;2023-03-16T04:30:04;9.95;;;4.38;;
21110;SDS011;10713;51.912;4.494;2023-03-16T04:32:32;8.68;;;4.40;;
21110;SDS011;10713;51.912;4.494;2023-03-16T04:34:58;6.63;;;4.15;;
21110;SDS011;10713;51.912;4.494;2023-03-16T04:37:23;9.55;;;3.28;;
21110;SDS011;10713;51.912;4.494;2023-03-16T04:39:49;7.80;;;3.90;;
21110;SDS011;10713;51.912;4.494;2023-03-16T04:42:14;6.20;;;3.28;;
21110;SDS011;10713;51.912;4.494;2023-03-16T04:44:40;9.43;;;3.63;;
21110;SDS011;10713;51.912;4.494;2023-03-16T04:47:08;9.05;;;3.47;;
21110;SDS011;10713;51.912;4.494;2023-03-16T04:49:33;7.35;;;3.60;;
21110;SDS011;10713;51.912;4.494;2023-03-16T04:51:59;9.27;;;3.22;;
21110;SDS011;10713;51.912;4.494;2023-03-16T04:54:24;7.65;;;3.47;;
21110;SDS011;10713;51.912;4.494;2023-03-16T04:56:50;9.73;;;3.55;;
21110;SDS011;10713;51.912;4.494;2023-03-16T04:59:16;3.95;;;2.22;;
21110;SDS011;10713;51.912;4.494;2023-03-16T05:01:41;10.30;;;2.92;;
21110;SDS011;10713;51.912;4.494;2023-03-16T05:04:07;6.88;;;3.40;;
21110;SDS011;10713;51.912;4.494;2023-03-16T05:06:33;6.53;;;3.10;;
21110;SDS011;10713;51.912;4.494;2023-03-16T05:08:58;5.07;;;2.75;;
21110;SDS011;10713;51.912;4.494;2023-03-16T05:11:24;6.43;;;3.53;;
21110;SDS011;10713;51.912;4.494;2023-03-16T05:13:50;8.02;;;4.03;;
21110;SDS011;10713;51.912;4.494;2023-03-16T05:16:16;8.93;;;3.85;;
21110;SDS011;10713;51.912;4.494;2023-03-16T05:18:41;3.05;;;1.80;;
21110;SDS011;10713;51.912;4.494;2023-03-16T05:21:07;9.48;;;3.92;;
21110;SDS011;10713;51.912;4.494;2023-03-16T05:23:32;8.70;;;3.55;;
21110;SDS011;10713;51.912;4.494;2023-03-16T05:25:57;9.80;;;3.70;;
21110;SDS011;10713;51.912;4.494;2023-03-16T05:28:26;7.10;;;2.97;;
21110;SDS011;10713;51.912;4.494;2023-03-16T05:30:52;9.23;;;3.88;;
21110;SDS011;10713;51.912;4.494;2023-03-16T05:33:18;9.18;;;4.20;;
21110;SDS011;10713;51.912;4.494;2023-03-16T05:35:43;5.45;;;2.83;;
21110;SDS011;10713;51.912;4.494;2023-03-16T05:38:09;7.22;;;3.17;;
21110;SDS011;10713;51.912;4.494;2023-03-16T05:40:34;3.72;;;1.98;;
21110;SDS011;10713;51.912;4.494;2023-03-16T05:43:01;6.07;;;3.13;;
21110;SDS011;10713;51.912;4.494;2023-03-16T05:45:28;9.40;;;3.10;;
21110;SDS011;10713;51.912;4.494;2023-03-16T05:47:54;8.15;;;3.47;;
21110;SDS011;10713;51.912;4.494;2023-03-16T05:50:19;6.53;;;3.30;;
21110;SDS011;10713;51.912;4.494;2023-03-16T05:52:45;9.48;;;2.85;;
21110;SDS011;10713;51.912;4.494;2023-03-16T05:55:11;5.90;;;2.42;;
21110;SDS011;10713;51.912;4.494;2023-03-16T05:57:38;6.18;;;3.33;;
21110;SDS011;10713;51.912;4.494;2023-03-16T06:00:05;11.52;;;3.83;;
21110;SDS011;10713;51.912;4.494;2023-03-16T06:02:38;5.00;;;3.17;;
21110;SDS011;10713;51.912;4.494;2023-03-16T06:05:03;4.65;;;2.58;;
21110;SDS011;10713;51.912;4.494;2023-03-16T06:07:29;10.43;;;4.05;;
21110;SDS011;10713;51.912;4.494;2023-03-16T06:09:54;4.32;;;2.60;;
21110;SDS011;10713;51.912;4.494;2023-03-16T06:12:20;8.45;;;4.00;;
21110;SDS011;10713;51.912;4.494;2023-03-16T06:14:45;8.15;;;3.50;;
21110;SDS011;10713;51.912;4.494;2023-03-16T06:17:11;9.02;;;3.83;;
21110;SDS011;10713;51.912;4.494;2023-03-16T06:19:36;7.82;;;3.38;;
21110;SDS011;10713;51.912;4.494;2023-03-16T06:22:01;7.10;;;3.85;;
21110;SDS011;10713;51.912;4.494;2023-03-16T06:24:27;5.75;;;3.30;;
21110;SDS011;10713;51.912;4.494;2023-03-16T06:26:52;6.55;;;3.50;;
21110;SDS011;10713;51.912;4.494;2023-03-16T06:29:18;9.23;;;3.97;;
21110;SDS011;10713;51.912;4.494;2023-03-16T06:31:43;8.13;;;3.85;;
21110;SDS011;10713;51.912;4.494;2023-03-16T06:34:08;7.57;;;3.75;;
21110;SDS011;10713;51.912;4.494;2023-03-16T06:36:34;9.48;;;4.22;;
21110;SDS011;10713;51.912;4.494;2023-03-16T06:38:59;5.57;;;2.90;;
21110;SDS011;10713;51.912;4.494;2023-03-16T06:41:24;8.40;;;3.53;;
21110;SDS011;10713;51.912;4.494;2023-03-16T06:43:50;10.73;;;4.45;;
21110;SDS011;10713;51.912;4.494;2023-03-16T06:46:15;5.70;;;3.40;;
21110;SDS011;10713;51.912;4.494;2023-03-16T06:48:40;13.32;;;4.07;;
21110;SDS011;10713;51.912;4.494;2023-03-16T06:51:06;11.57;;;3.47;;
21110;SDS011;10713;51.912;4.494;2023-03-16T06:53:31;13.63;;;5.00;;
21110;SDS011;10713;51.912;4.494;2023-03-16T06:55:57;9.35;;;4.00;;
21110;SDS011;10713;51.912;4.494;2023-03-16T06:58:22;8.90;;;4.00;;
21110;SDS011;10713;51.912;4.494;2023-03-16T07:00:50;6.18;;;3.13;;
21110;SDS011;10713;51.912;4.494;2023-03-16T07:03:21;5.72;;;3.05;;
21110;SDS011;10713;51.912;4.494;2023-03-16T07:05:47;13.88;;;3.55;;
21110;SDS011;10713;51.912;4.494;2023-03-16T07:08:12;6.82;;;2.42;;
21110;SDS011;10713;51.912;4.494;2023-03-16T07:10:39;5.70;;;2.95;;
21110;SDS011;10713;51.912;4.494;2023-03-16T07:13:04;9.93;;;4.05;;
21110;SDS011;10713;51.912;4.494;2023-03-16T07:15:30;8.93;;;3.65;;
21110;SDS011;10713;51.912;4.494;2023-03-16T07:17:55;5.68;;;3.72;;
21110;SDS011;10713;51.912;4.494;2023-03-16T07:20:21;5.25;;;2.20;;
21110;SDS011;10713;51.912;4.494;2023-03-16T07:22:46;9.00;;;3.75;;
21110;SDS011;10713;51.912;4.494;2023-03-16T07:25:12;11.00;;;4.55;;
21110;SDS011;10713;51.912;4.494;2023-03-16T07:27:38;6.90;;;3.53;;
21110;SDS011;10713;51.912;4.494;2023-03-16T07:30:05;8.07;;;2.63;;
21110;SDS011;10713;51.912;4.494;2023-03-16T07:32:31;7.80;;;3.05;;
21110;SDS011;10713;51.912;4.494;2023-03-16T07:34:57;9.93;;;3.28;;
21110;SDS011;10713;51.912;4.494;2023-03-16T07:37:23;9.05;;;3.30;;
21110;SDS011;10713;51.912;4.494;2023-03-16T07:39:49;9.02;;;3.50;;
21110;SDS011;10713;51.912;4.494;2023-03-16T07:42:16;7.18;;;3.40;;
21110;SDS011;10713;51.912;4.494;2023-03-16T07:44:42;8.02;;;2.97;;
21110;SDS011;10713;51.912;4.494;2023-03-16T07:47:08;8.25;;;3.30;;
21110;SDS011;10713;51.912;4.494;2023-03-16T07:49:36;8.02;;;3.25;;
21110;SDS011;10713;51.912;4.494;2023-03-16T07:52:02;4.65;;;2.05;;
21110;SDS011;10713;51.912;4.494;2023-03-16T07:54:27;5.88;;;2.10;;
21110;SDS011;10713;51.912;4.494;2023-03-16T07:56:53;9.70;;;3.10;;
21110;SDS011;10713;51.912;4.494;2023-03-16T07:59:18;8.90;;;2.85;;
21110;SDS011;10713;51.912;4.494;2023-03-16T08:01:45;10.75;;;3.55;;
21110;SDS011;10713;51.912;4.494;2023-03-16T08:04:10;7.25;;;2.60;;
21110;SDS011;10713;51.912;4.494;2023-03-16T08:06:36;4.07;;;2.13;;
21110;SDS011;10713;51.912;4.494;2023-03-16T08:09:02;8.00;;;2.90;;
21110;SDS011;10713;51.912;4.494;2023-03-16T08:11:27;10.35;;;3.25;;
21110;SDS011;10713;51.912;4.494;2023-03-16T08:13:53;6.88;;;3.00;;
21110;SDS011;10713;51.912;4.494;2023-03-16T08:16:20;6.40;;;2.60;;
21110;SDS011;10713;51.912;4.494;2023-03-16T08:18:47;4.72;;;2.60;;
21110;SDS011;10713;51.912;4.494;2023-03-16T08:21:14;6.30;;;3.10;;
21110;SDS011;10713;51.912;4.494;2023-03-16T08:23:41;7.30;;;2.50;;
21110;SDS011;10713;51.912;4.494;2023-03-16T08:26:13;5.43;;;2.47;;
21110;SDS011;10713;51.912;4.494;2023-03-16T08:28:39;6.97;;;2.90;;
21110;SDS011;10713;51.912;4.494;2023-03-16T08:31:05;8.95;;;2.97;;
21110;SDS011;10713;51.912;4.494;2023-03-16T08:33:32;4.53;;;2.53;;
21110;SDS011;10713;51.912;4.494;2023-03-16T08:35:57;8.65;;;2.28;;
21110;SDS011;10713;51.912;4.494;2023-03-16T08:38:22;7.30;;;2.47;;
21110;SDS011;10713;51.912;4.494;2023-03-16T08:40:49;5.28;;;2.67;;
21110;SDS011;10713;51.912;4.494;2023-03-16T08:43:15;5.63;;;2.72;;
21110;SDS011;10713;51.912;4.494;2023-03-16T08:45:43;5.82;;;2.65;;
21110;SDS011;10713;51.912;4.494;2023-03-16T08:48:09;8.60;;;2.83;;
21110;SDS011;10713;51.912;4.494;2023-03-16T08:50:38;3.92;;;2.65;;
21110;SDS011;10713;51.912;4.494;2023-03-16T08:53:04;4.50;;;2.13;;
21110;SDS011;10713;51.912;4.494;2023-03-16T08:55:30;5.38;;;2.17;;
21110;SDS011;10713;51.912;4.494;2023-03-16T08:57:55;7.47;;;2.67;;
21110;SDS011;10713;51.912;4.494;2023-03-16T09:00:20;9.45;;;2.50;;
21110;SDS011;10713;51.912;4.494;2023-03-16T09:02:47;6.35;;;2.67;;
21110;SDS011;10713;51.912;4.494;2023-03-16T09:05:12;6.35;;;2.63;;
21110;SDS011;10713;51.912;4.494;2023-03-16T09:07:39;6.53;;;2.70;;
21110;SDS011;10713;51.912;4.494;2023-03-16T09:10:06;4.35;;;1.90;;
21110;SDS011;10713;51.912;4.494;2023-03-16T09:12:35;9.40;;;2.50;;
21110;SDS011;10713;51.912;4.494;2023-03-16T09:15:01;5.53;;;1.80;;
21110;SDS011;10713;51.912;4.494;2023-03-16T09:17:27;4.57;;;2.20;;
21110;SDS011;10713;51.912;4.494;2023-03-16T09:19:53;4.63;;;2.22;;
21110;SDS011;10713;51.912;4.494;2023-03-16T09:22:19;7.50;;;1.75;;
21110;SDS011;10713;51.912;4.494;2023-03-16T09:24:46;3.78;;;2.13;;
21110;SDS011;10713;51.912;4.494;2023-03-16T09:27:12;5.90;;;2.38;;
21110;SDS011;10713;51.912;4.494;2023-03-16T09:29:39;4.15;;;2.25;;
21110;SDS011;10713;51.912;4.494;2023-03-16T09:32:05;3.22;;;1.92;;
21110;SDS011;10713;51.912;4.494;2023-03-16T09:34:31;5.97;;;2.20;;
21110;SDS011;10713;51.912;4.494;2023-03-16T09:36:57;5.80;;;2.33;;
21110;SDS011;10713;51.912;4.494;2023-03-16T09:39:22;6.47;;;2.40;;
21110;SDS011;10713;51.912;4.494;2023-03-16T09:41:51;5.47;;;2.47;;
21110;SDS011;10713;51.912;4.494;2023-03-16T09:44:41;4.90;;;1.95;;
21110;SDS011;10713;51.912;4.494;2023-03-16T09:47:29;4.15;;;2.03;;
21110;SDS011;10713;51.912;4.494;2023-03-16T09:49:59;4.97;;;2.38;;
21110;SDS011;10713;51.912;4.494;2023-03-16T09:52:34;6.22;;;2.40;;
21110;SDS011;10713;51.912;4.494;2023-03-16T09:57:38;5.65;;;2.45;;
21110;SDS011;10713;51.912;4.494;2023-03-16T10:02:50;5.75;;;2.63;;
21110;SDS011;10713;51.912;4.494;2023-03-16T10:05:19;4.32;;;2.30;;
21110;SDS011;10713;51.912;4.494;2023-03-16T10:08:05;4.75;;;2.05;;
21110;SDS011;10713;51.912;4.494;2023-03-16T10:13:04;4.28;;;1.98;;
21110;SDS011;10713;51.912;4.494;2023-03-16T10:15:37;17.30;;;6.57;;
21110;SDS011;10713;51.912;4.494;2023-03-16T10:18:14;9.82;;;4.00;;
21110;SDS011;10713;51.912;4.494;2023-03-16T10:20:45;5.40;;;2.90;;
21110;SDS011;10713;51.912;4.494;2023-03-16T10:23:17;8.40;;;2.28;;
21110;SDS011;10713;51.912;4.494;2023-03-16T10:25:51;5.03;;;2.45;;
21110;SDS011;10713;51.912;4.494;2023-03-16T10:30:46;6.32;;;3.03;;
21110;SDS011;10713;51.912;4.494;2023-03-16T10:38:53;6.15;;;2.70;;
21110;SDS011;10713;51.912;4.494;2023-03-16T10:44:00;6.72;;;2.30;;
21110;SDS011;10713;51.912;4.494;2023-03-16T10:46:43;7.65;;;2.45;;
21110;SDS011;10713;51.912;4.494;2023-03-16T10:49:21;7.65;;;2.63;;
21110;SDS011;10713;51.912;4.494;2023-03-16T10:51:54;7.47;;;2.03;;
21110;SDS011;10713;51.912;4.494;2023-03-16T10:54:29;5.22;;;2.15;;
21110;SDS011;10713;51.912;4.494;2023-03-16T10:56:59;3.38;;;1.98;;
21110;SDS011;10713;51.912;4.494;2023-03-16T10:59:37;4.63;;;2.17;;
21110;SDS011;10713;51.912;4.494;2023-03-16T11:02:13;5.60;;;2.30;;
21110;SDS011;10713;51.912;4.494;2023-03-16T11:04:40;7.28;;;2.63;;
21110;SDS011;10713;51.912;4.494;2023-03-16T11:07:06;5.72;;;2.30;;
21110;SDS011;10713;51.912;4.494;2023-03-16T11:09:39;9.13;;;2.53;;
21110;SDS011;10713;51.912;4.494;2023-03-16T11:12:18;4.15;;;2.00;;
21110;SDS011;10713;51.912;4.494;2023-03-16T11:14:48;7.93;;;2.42;;
21110;SDS011;10713;51.912;4.494;2023-03-16T11:17:15;4.47;;;2.00;;
21110;SDS011;10713;51.912;4.494;2023-03-16T11:19:49;5.20;;;2.35;;
21110;SDS011;10713;51.912;4.494;2023-03-16T11:22:19;5.32;;;2.00;;
21110;SDS011;10713;51.912;4.494;2023-03-16T11:30:22;5.70;;;2.30;;
21110;SDS011;10713;51.912;4.494;2023-03-16T11:32:49;5.72;;;2.03;;
21110;SDS011;10713;51.912;4.494;2023-03-16T11:35:17;6.45;;;1.90;;
21110;SDS011;10713;51.912;4.494;2023-03-16T11:37:48;5.50;;;1.95;;
21110;SDS011;10713;51.912;4.494;2023-03-16T11:43:19;3.88;;;2.08;;
21110;SDS011;10713;51.912;4.494;2023-03-16T12:02:42;6.15;;;1.30;;
21110;SDS011;10713;51.912;4.494;2023-03-16T12:11:04;4.65;;;1.48;;
21110;SDS011;10713;51.912;4.494;2023-03-16T12:16:25;4.07;;;1.50;;
21110;SDS011;10713;51.912;4.494;2023-03-16T12:18:57;4.55;;;1.80;;
21110;SDS011;10713;51.912;4.494;2023-03-16T12:21:30;8.25;;;1.48;;
21110;SDS011;10713;51.912;4.494;2023-03-16T12:24:04;4.60;;;1.50;;
21110;SDS011;10713;51.912;4.494;2023-03-16T12:26:35;6.97;;;1.92;;
21110;SDS011;10713;51.912;4.494;2023-03-16T12:31:52;3.70;;;1.60;;
21110;SDS011;10713;51.912;4.494;2023-03-16T12:34:32;3.78;;;1.30;;
21110;SDS011;10713;51.912;4.494;2023-03-16T12:37:07;4.43;;;1.40;;
21110;SDS011;10713;51.912;4.494;2023-03-16T12:42:41;7.78;;;1.95;;
21110;SDS011;10713;51.912;4.494;2023-03-16T12:45:35;4.97;;;1.75;;
21110;SDS011;10713;51.912;4.494;2023-03-16T12:48:11;4.32;;;1.60;;
21110;SDS011;10713;51.912;4.494;2023-03-16T12:50:51;6.75;;;1.58;;
21110;SDS011;10713;51.912;4.494;2023-03-16T12:53:27;8.43;;;1.63;;
21110;SDS011;10713;51.912;4.494;2023-03-16T12:55:54;4.97;;;1.95;;
21110;SDS011;10713;51.912;4.494;2023-03-16T12:58:21;7.20;;;1.58;;
21110;SDS011;10713;51.912;4.494;2023-03-16T13:00:54;6.75;;;1.70;;
21110;SDS011;10713;51.912;4.494;2023-03-16T13:03:22;3.30;;;1.58;;
21110;SDS011;10713;51.912;4.494;2023-03-16T13:05:50;4.18;;;1.40;;
21110;SDS011;10713;51.912;4.494;2023-03-16T13:08:19;6.10;;;1.60;;
21110;SDS011;10713;51.912;4.494;2023-03-16T13:13:34;8.02;;;1.92;;
21110;SDS011;10713;51.912;4.494;2023-03-16T13:16:22;5.38;;;1.55;;
21110;SDS011;10713;51.912;4.494;2023-03-16T13:18:51;4.25;;;1.33;;
21110;SDS011;10713;51.912;4.494;2023-03-16T13:26:46;6.97;;;1.33;;
21110;SDS011;10713;51.912;4.494;2023-03-16T13:29:23;5.78;;;1.30;;
21110;SDS011;10713;51.912;4.494;2023-03-16T13:31:51;2.80;;;1.00;;
21110;SDS011;10713;51.912;4.494;2023-03-16T13:34:20;7.45;;;1.52;;
21110;SDS011;10713;51.912;4.494;2023-03-16T13:37:01;3.85;;;1.90;;
21110;SDS011;10713;51.912;4.494;2023-03-16T13:39:28;4.53;;;1.92;;
21110;SDS011;10713;51.912;4.494;2023-03-16T13:42:00;7.55;;;1.63;;
21110;SDS011;10713;51.912;4.494;2023-03-16T13:44:31;8.82;;;1.95;;
21110;SDS011;10713;51.912;4.494;2023-03-16T13:47:01;4.15;;;1.40;;
21110;SDS011;10713;51.912;4.494;2023-03-16T13:49:28;4.28;;;1.50;;
21110;SDS011;10713;51.912;4.494;2023-03-16T13:51:53;5.13;;;1.50;;
21110;SDS011;10713;51.912;4.494;2023-03-16T13:54:20;6.53;;;1.60;;
21110;SDS011;10713;51.912;4.494;2023-03-16T13:56:57;8.95;;;1.92;;
21110;SDS011;10713;51.912;4.494;2023-03-16T13:59:27;5.22;;;1.30;;
21110;SDS011;10713;51.912;4.494;2023-03-16T14:01:57;8.05;;;1.70;;
21110;SDS011;10713;51.912;4.494;2023-03-16T14:04:28;4.55;;;1.45;;
21110;SDS011;10713;51.912;4.494;2023-03-16T14:09:25;4.90;;;1.55;;
21110;SDS011;10713;51.912;4.494;2023-03-16T14:11:53;2.33;;;1.05;;
21110;SDS011;10713;51.912;4.494;2023-03-16T14:14:27;2.72;;;1.27;;
21110;SDS011;10713;51.912;4.494;2023-03-16T14:17:02;3.78;;;1.73;;
21110;SDS011;10713;51.912;4.494;2023-03-16T14:19:57;5.50;;;1.50;;
21110;SDS011;10713;51.912;4.494;2023-03-16T14:22:22;4.93;;;1.70;;
21110;SDS011;10713;51.912;4.494;2023-03-16T14:24:53;6.13;;;1.60;;
21110;SDS011;10713;51.912;4.494;2023-03-16T14:32:57;4.07;;;1.73;;
21110;SDS011;10713;51.912;4.494;2023-03-16T14:35:25;3.25;;;1.58;;
21110;SDS011;10713;51.912;4.494;2023-03-16T14:37:53;6.13;;;1.77;;
21110;SDS011;10713;51.912;4.494;2023-03-16T14:40:21;4.63;;;1.60;;
21110;SDS011;10713;51.912;4.494;2023-03-16T14:42:50;8.85;;;1.95;;
21110;SDS011;10713;51.912;4.494;2023-03-16T14:45:17;3.83;;;1.30;;
21110;SDS011;10713;51.912;4.494;2023-03-16T14:47:44;3.72;;;1.38;;
21110;SDS011;10713;51.912;4.494;2023-03-16T14:50:21;6.30;;;1.52;;
21110;SDS011;10713;51.912;4.494;2023-03-16T14:52:53;4.38;;;1.58;;
21110;SDS011;10713;51.912;4.494;2023-03-16T14:55:19;3.22;;;1.35;;
21110;SDS011;10713;51.912;4.494;2023-03-16T14:57:47;3.38;;;1.20;;
21110;SDS011;10713;51.912;4.494;2023-03-16T15:00:17;3.45;;;1.38;;
21110;SDS011;10713;51.912;4.494;2023-03-16T15:02:47;1.90;;;1.10;;
21110;SDS011;10713;51.912;4.494;2023-03-16T15:05:37;4.15;;;1.73;;
21110;SDS011;10713;51.912;4.494;2023-03-16T15:08:05;6.70;;;1.50;;
21110;SDS011;10713;51.912;4.494;2023-03-16T15:10:38;2.67;;;1.40;;
21110;SDS011;10713;51.912;4.494;2023-03-16T15:13:13;3.58;;;1.25;;
21110;SDS011;10713;51.912;4.494;2023-03-16T15:15:58;3.72;;;1.67;;
21110;SDS011;10713;51.912;4.494;2023-03-16T15:18:29;4.00;;;1.58;;
21110;SDS011;10713;51.912;4.494;2023-03-16T15:20:59;3.70;;;1.17;;
21110;SDS011;10713;51.912;4.494;2023-03-16T15:23:26;3.15;;;1.33;;
21110;SDS011;10713;51.912;4.494;2023-03-16T15:25:53;5.65;;;1.60;;
21110;SDS011;10713;51.912;4.494;2023-03-16T15:28:24;3.92;;;1.38;;
21110;SDS011;10713;51.912;4.494;2023-03-16T15:30:52;5.35;;;1.50;;
21110;SDS011;10713;51.912;4.494;2023-03-16T15:33:19;4.60;;;1.23;;
21110;SDS011;10713;51.912;4.494;2023-03-16T15:35:46;3.22;;;1.60;;
21110;SDS011;10713;51.912;4.494;2023-03-16T15:38:15;5.18;;;1.20;;
21110;SDS011;10713;51.912;4.494;2023-03-16T15:40:56;6.85;;;1.25;;
21110;SDS011;10713;51.912;4.494;2023-03-16T15:43:23;4.78;;;1.40;;
21110;SDS011;10713;51.912;4.494;2023-03-16T15:45:51;3.92;;;1.50;;
21110;SDS011;10713;51.912;4.494;2023-03-16T15:48:18;4.30;;;1.38;;
21110;SDS011;10713;51.912;4.494;2023-03-16T15:53:35;3.25;;;1.30;;
21110;SDS011;10713;51.912;4.494;2023-03-16T15:56:13;2.03;;;1.13;;
21110;SDS011;10713;51.912;4.494;2023-03-16T15:58:42;6.13;;;1.25;;
21110;SDS011;10713;51.912;4.494;2023-03-16T16:01:16;2.30;;;1.23;;
21110;SDS011;10713;51.912;4.494;2023-03-16T16:03:46;3.63;;;1.30;;
21110;SDS011;10713;51.912;4.494;2023-03-16T16:06:12;3.00;;;1.10;;
21110;SDS011;10713;51.912;4.494;2023-03-16T16:08:38;5.63;;;1.30;;
21110;SDS011;10713;51.912;4.494;2023-03-16T16:11:04;3.42;;;1.38;;
21110;SDS011;10713;51.912;4.494;2023-03-16T16:13:38;3.58;;;1.25;;
21110;SDS011;10713;51.912;4.494;2023-03-16T16:16:03;3.38;;;1.10;;
21110;SDS011;10713;51.912;4.494;2023-03-16T16:18:30;3.13;;;1.00;;